Latest Weather Observations for Port Fairy

IDV60801

Issued at 11:34 am EDT Saturday 10 December 2016 (issued every 30 minutes, with the page automatically refreshed every 10 minutes)

About weather observations | Map of weather stations | Latest weather observations for VIC | Other Formats
Station Details ID: 090175 Name: PORT FAIRY AWS Lat: -38.39 Lon: 142.23 Height: 10.0 m
Data from the previous 72 hours. | See also: Recent months at Port Fairy
Date/Time
EDT
Temp
°C
App
Temp
°C
Dew
Point
°C
Rel
Hum
%
Delta-T
°C
Wind Press
QNH
hPa
Press
MSL
hPa
Rain since
9am
mm
Dir  Spd
km/h
Gust
km/h
Spd
kts
Gust
kts
10/11:30am 14.7 12.5 10.9 78 2.0 SW 13 22 7 12 1024.9 1024.9 0.0
10/11:00am 14.2 10.4 11.2 82 1.6 WSW 22 30 12 16 1025.0 1025.0 0.0
10/10:30am 13.5 11.1 9.9 79 1.9 W 13 20 7 11 1024.7 1024.7 0.0
10/10:00am 12.8 11.7 10.0 83 1.4 NW 6 9 3 5 1024.8 1024.8 0.0
10/09:30am 12.9 11.6 11.1 89 0.9 NW 9 13 5 7 1024.8 1024.8 0.0
10/09:00am 11.8 10.3 10.7 93 0.6 NW 9 17 5 9 1024.4 1024.4 0.2
10/08:30am 11.3 10.1 10.2 93 0.6 NNW 7 13 4 7 1024.1 1024.1 0.2
10/08:00am 11.4 10.1 9.8 90 0.8 NW 7 15 4 8 1024.1 1024.1 0.2
10/07:30am 10.8 9.1 9.7 93 0.6 NNW 9 15 5 8 1023.6 1023.6 0.2
10/07:00am 10.5 9.1 9.4 93 0.5 NNW 7 13 4 7 1023.2 1023.2 0.2
10/06:30am 10.4 8.9 9.3 93 0.5 NNW 7 13 4 7 1022.9 1022.9 0.2
10/06:00am 10.4 8.9 9.2 92 0.6 NNW 7 11 4 6 1022.6 1022.6 0.2
10/05:30am 10.2 8.5 8.5 89 0.8 NNW 7 11 4 6 1022.6 1022.6 0.2
10/05:00am 10.5 9.8 8.4 87 1.0 NNW 2 4 1 2 1022.3 1022.3 0.2
10/04:30am 11.6 9.9 9.7 88 1.0 SW 9 17 5 9 1022.1 1022.1 0.2
10/04:00am 11.6 11.0 8.8 83 1.4 WSW 2 6 1 3 1022.1 1022.1 0.0
10/03:30am 12.0 10.5 9.0 82 1.5 WSW 7 11 4 6 1022.2 1022.2 0.0
10/03:00am 12.2 9.1 8.7 79 1.7 SW 15 19 8 10 1022.4 1022.4 0.0
10/02:30am 11.7 10.1 8.6 81 1.5 SW 7 17 4 9 1022.6 1022.6 0.0
10/02:00am 11.9 8.7 8.6 80 1.6 SW 15 20 8 11 1022.7 1022.7 0.0
10/01:30am 12.3 9.2 8.8 79 1.7 SSW 15 24 8 13 1022.8 1022.8 0.0
10/01:00am 12.6 9.2 7.7 72 2.4 WSW 15 19 8 10 1022.9 1022.9 0.0
10/12:30am 12.7 9.0 6.5 66 3.0 SW 15 20 8 11 1023.0 1023.0 0.0
10/12:00am 12.4 8.8 6.9 69 2.6 SW 15 20 8 11 1023.2 1023.2 0.0
 
Date/Time
EDT
Temp
°C
App
Temp
°C
Dew
Point
°C
Rel
Hum
%
Delta-T
°C
Wind Press
QNH
hPa
Press
MSL
hPa
Rain since
9am
mm
Dir  Spd
km/h
Gust
km/h
Spd
kts
Gust
kts
09/11:30pm 12.2 8.7 7.1 71 2.5 SW 15 24 8 13 1023.3 1023.3 0.0
09/11:00pm 12.2 8.3 7.1 71 2.4 SW 17 22 9 12 1023.3 1023.3 0.0
09/10:30pm 12.3 8.0 7.2 71 2.5 SW 19 22 10 12 1023.3 1023.3 0.0
09/10:00pm 12.3 8.5 7.4 72 2.4 SW 17 22 9 12 1023.2 1023.2 0.0
09/09:30pm 12.3 8.8 7.2 71 2.5 SSW 15 20 8 11 1022.9 1022.9 0.0
09/09:00pm 12.8 8.8 8.1 73 2.3 SW 19 22 10 12 1022.9 1022.9 0.0
09/08:30pm 12.7 8.5 7.4 70 2.6 SW 19 24 10 13 1022.8 1022.8 0.0
09/08:00pm 12.6 7.6 7.9 73 2.3 SW 24 30 13 16 1022.7 1022.7 0.0
09/07:30pm 13.2 8.8 7.4 68 2.8 SW 20 30 11 16 1022.4 1022.4 0.0
09/07:00pm 13.6 9.4 7.4 66 3.0 SW 19 26 10 14 1021.9 1021.9 0.0
09/06:30pm 13.0 7.5 7.7 70 2.6 SW 26 35 14 19 1021.7 1021.7 0.0
09/06:00pm 13.9 9.2 7.9 67 3.0 SW 22 30 12 16 1021.5 1021.5 0.0
09/05:30pm 14.6 10.0 8.1 65 3.2 SW 22 28 12 15 1021.4 1021.4 0.0
09/05:00pm 15.7 11.1 8.0 60 3.9 SW 22 30 12 16 1021.5 1021.5 0.0
09/04:30pm 14.4 10.5 9.4 72 2.6 SSW 20 30 11 16 1021.3 1021.3 0.0
09/04:00pm 15.5 10.4 7.5 59 4.0 WSW 24 32 13 17 1021.3 1021.3 0.0
09/03:30pm 13.6 8.5 7.8 68 2.9 SW 24 33 13 18 1021.3 1021.3 0.0
09/03:00pm 15.0 10.0 8.0 63 3.5 SW 24 32 13 17 1021.2 1021.2 0.0
09/02:30pm 15.1 10.8 7.9 62 3.6 SW 20 30 11 16 1021.0 1021.0 0.0
09/02:00pm 14.5 9.5 8.0 65 3.2 SW 24 32 13 17 1021.1 1021.1 0.0
09/01:30pm 13.0 8.1 8.5 74 2.2 SW 24 33 13 18 1020.9 1020.9 0.0
09/01:00pm 14.9 9.2 8.2 64 3.4 SW 28 37 15 20 1020.6 1020.6 0.0
09/12:30pm 14.9 9.4 7.5 61 3.7 SW 26 33 14 18 1020.3 1020.3 0.0
09/12:00pm 14.9 9.6 6.7 58 4.0 SW 24 33 13 18 1020.0 1020.0 0.0
09/11:30am 14.6 9.6 7.9 64 3.3 SW 24 33 13 18 1019.7 1019.7 0.0
09/11:00am 14.2 9.0 7.3 63 3.4 SW 24 32 13 17 1019.5 1019.5 0.0
09/10:30am 13.8 8.1 8.2 69 2.8 SW 28 41 15 22 1019.3 1019.3 0.0
09/10:00am 13.5 8.3 7.1 65 3.1 SSW 24 33 13 18 1019.0 1019.0 0.0
09/09:30am 12.5 5.0 6.5 67 2.9 SW 35 46 19 25 1018.7 1018.7 0.0
09/09:17am 13.5 6.9 7.7 68 2.9 SSW 32 52 17 28 1018.4 1018.4 0.0
09/09:00am 13.9 7.0 6.5 61 3.6 SW 32 43 17 23 1017.9 1017.9 2.4
09/08:30am 13.6 6.9 7.2 65 3.1 SSW 32 41 17 22 1017.4 1017.4 2.4
09/08:00am 12.7 5.8 7.2 69 2.7 SW 33 46 18 25 1016.8 1016.8 2.4
09/07:30am 11.8 5.4 7.1 73 2.3 SSW 30 41 16 22 1016.2 1016.2 2.4
09/07:09am 11.9 5.2 7.4 74 2.2 SSW 32 50 17 27 1015.8 1015.8 2.4
09/07:00am 12.3 4.0 7.8 74 2.2 SW 41 52 22 28 1015.7 1015.7 2.4
09/06:30am 12.6 5.5 5.5 62 3.3 SSW 32 43 17 23 1015.0 1015.0 2.4
09/06:00am 12.4 4.5 6.0 65 3.0 SSW 37 52 20 28 1014.6 1014.6 2.4
09/05:32am 12.5 4.6 6.3 66 2.9 SW 37 57 20 31 1014.2 1014.2 2.4
09/05:30am 12.3 4.3 5.7 64 3.1 SW 37 46 20 25 1014.2 1014.2 2.4
09/05:00am 11.8 2.9 5.2 64 3.0 SSW 41 54 22 29 1013.7 1013.7 2.4
09/04:30am 11.9 3.7 6.6 70 2.5 SW 39 54 21 29 1013.2 1013.2 2.4
09/04:00am 11.8 4.5 8.8 82 1.5 SSW 37 54 20 29 1012.9 1012.9 2.4
09/03:59am 11.7 4.7 8.4 80 1.6 SSW 35 54 19 29 1012.8 1012.8 2.4
09/03:30am 12.5 4.7 6.5 67 2.9 SW 37 50 20 27 1012.4 1012.4 2.4
09/03:00am 12.4 4.3 6.9 69 2.6 SW 39 52 21 28 1012.3 1012.3 2.4
09/02:30am 12.0 4.2 6.7 70 2.5 SSW 37 50 20 27 1012.2 1012.2 2.4
09/02:00am 12.5 4.7 6.8 68 2.7 SW 37 54 20 29 1011.8 1011.8 2.4
09/01:35am 11.9 4.3 7.6 75 2.1 SW 37 56 20 30 1011.8 1011.8 2.4
09/01:30am 12.2 4.1 7.1 71 2.5 SW 39 56 21 30 1011.8 1011.8 2.4
09/01:17am 12.1 5.3 7.0 71 2.4 SSW 32 50 17 27 1011.7 1011.7 2.4
09/01:00am 11.8 3.9 7.7 76 2.0 SSW 39 52 21 28 1011.6 1011.6 2.4
09/12:40am 12.2 5.9 9.0 81 1.6 SW 32 57 17 31 1011.5 1011.5 2.4
09/12:30am 11.9 5.4 8.9 82 1.5 SW 33 46 18 25 1011.5 1011.5 2.4
09/12:00am 11.0 2.4 8.2 83 1.4 SW 43 61 23 33 1011.4 1011.4 2.2
 
Date/Time
EDT
Temp
°C
App
Temp
°C
Dew
Point
°C
Rel
Hum
%
Delta-T
°C
Wind Press
QNH
hPa
Press
MSL
hPa
Rain since
9am
mm
Dir  Spd
km/h
Gust
km/h
Spd
kts
Gust
kts
08/11:53pm 13.1 6.6 8.8 75 2.2 SSW 33 57 18 31 1011.1 1011.1 1.6
08/11:30pm 12.7 5.4 8.6 76 2.0 SW 37 48 20 26 1010.9 1010.9 1.6
08/11:12pm 12.4 6.3 9.6 83 1.4 SSW 32 52 17 28 1010.8 1010.8 1.6
08/11:00pm 12.9 5.2 8.8 76 2.1 SSW 39 50 21 27 1010.4 1010.4 1.4
08/10:30pm 13.6 5.0 8.0 69 2.8 SW 43 56 23 30 1009.8 1009.8 1.4
08/10:00pm 13.4 4.5 7.6 68 2.8 SW 44 57 24 31 1009.2 1009.2 1.4
08/09:30pm 13.2 4.5 7.6 69 2.7 WSW 43 56 23 30 1008.7 1008.7 1.4
08/09:00pm 13.2 4.8 8.9 75 2.2 WSW 43 59 23 32 1007.9 1007.9 1.4
08/08:36pm 13.9 5.3 8.9 72 2.5 SW 44 65 24 35 1007.5 1007.5 1.4
08/08:30pm 13.9 5.2 8.3 69 2.8 SW 44 57 24 31 1007.3 1007.3 1.4
08/08:00pm 14.0 5.6 9.6 75 2.3 SW 44 61 24 33 1006.6 1006.6 1.4
08/07:30pm 13.4 4.0 8.7 73 2.4 SW 48 67 26 36 1006.0 1006.0 1.4
08/07:00pm 13.2 4.2 10.2 82 1.6 SW 48 70 26 38 1005.3 1005.3 1.4
08/06:31pm 12.9 4.6 11.5 91 0.7 SW 46 65 25 35 1004.4 1004.4 1.4
08/06:30pm 12.8 4.1 11.4 91 0.7 SW 48 65 26 35 1004.4 1004.4 1.4
08/06:12pm 13.2 5.4 11.9 92 0.7 WSW 44 63 24 34 1003.9 1003.9 1.0
08/06:00pm 12.6 4.1 10.8 89 0.9 WSW 46 63 25 34 1003.7 1003.7 1.0
08/05:30pm 13.2 4.4 11.1 87 1.1 WSW 48 69 26 37 1002.9 1002.9 0.6
08/05:00pm 13.5 5.4 12.2 92 0.7 WSW 46 65 25 35 1002.1 1002.1 0.4
08/04:53pm 13.9 6.4 12.1 89 1.0 WSW 43 65 23 35 1001.9 1001.9 0.2
08/04:30pm 14.9 5.6 12.0 83 1.6 WSW 52 67 28 36 1001.3 1001.3 0.0
08/04:07pm 15.4 7.7 11.4 77 2.1 W 43 61 23 33 1000.8 1000.8 0.0
08/04:00pm 14.7 6.9 11.7 82 1.6 W 44 61 24 33 1000.8 1000.8 0.0
08/03:30pm 16.0 8.0 11.0 72 2.7 W 44 65 24 35 1000.5 1000.5 0.0
08/03:00pm 17.1 9.2 11.6 70 3.0 W 44 67 24 36 999.9 999.9 0.0
08/02:30pm 15.9 8.2 11.5 75 2.4 W 43 63 23 34 999.5 999.5 0.0
08/02:00pm 16.1 8.1 10.4 69 3.0 W 43 70 23 38 999.0 999.0 0.0
08/01:30pm 17.2 8.1 9.9 62 3.8 W 48 72 26 39 998.6 998.6 0.0
08/01:00pm 16.4 7.6 9.6 64 3.6 W 46 69 25 37 998.5 998.5 0.0
08/12:30pm 17.2 8.5 9.9 62 3.8 WNW 46 72 25 39 998.1 998.1 0.0
08/12:00pm 17.5 9.4 10.9 65 3.6 W 44 67 24 36 997.6 997.6 0.0
08/11:30am 17.9 8.3 9.3 57 4.5 WNW 50 74 27 40 997.1 997.1 0.0
08/11:00am 17.1 7.4 9.0 59 4.2 WNW 50 69 27 37 996.8 996.8 0.0
08/10:30am 16.4 10.1 8.9 61 3.9 WNW 32 52 17 28 996.7 996.7 0.0
08/10:00am 17.3 11.1 9.2 59 4.2 WNW 32 57 17 31 996.3 996.3 0.0
08/09:30am 16.4 9.1 8.6 60 4.0 WNW 37 65 20 35 996.4 996.4 0.0
08/09:00am 16.0 9.9 9.7 66 3.3 WNW 32 59 17 32 996.2 996.2 1.4
08/08:30am 14.9 8.2 9.7 71 2.7 WNW 35 69 19 37 996.2 996.2 1.4
08/08:00am 14.7 7.7 10.1 74 2.4 WNW 37 59 20 32 995.8 995.8 1.4
08/07:30am 14.9 9.8 11.9 82 1.6 WNW 30 50 16 27 994.8 994.8 1.4
08/07:03am 14.1 8.0 11.8 86 1.2 WNW 35 54 19 29 994.8 994.8 1.4
08/07:00am 14.1 7.7 12.1 88 1.1 WNW 37 54 20 29 994.8 994.8 1.4
08/06:45am 16.3 10.4 13.6 84 1.5 WNW 37 69 20 37 994.3 994.3 1.2
08/06:31am 18.3 15.0 16.1 87 1.3 NNW 28 54 15 29 993.3 993.3 1.2
08/06:30am 18.3 15.5 16.3 88 1.2 NNW 26 50 14 27 993.2 993.2 1.2
08/06:04am 18.2 15.0 16.2 88 1.2 N 28 48 15 26 992.8 992.8 1.2
08/06:00am 18.3 14.3 16.1 87 1.3 N 32 48 17 26 992.9 992.9 1.2
08/05:38am 18.6 15.1 15.5 82 1.8 NNW 28 52 15 28 992.8 992.8 1.2
08/05:30am 18.5 15.0 15.4 82 1.8 N 28 41 15 22 992.7 992.7 1.2
08/05:02am 19.0 14.6 15.1 78 2.3 N 32 52 17 28 992.5 992.5 1.2
08/05:00am 19.1 14.7 15.2 78 2.3 NNW 32 50 17 27 992.6 992.6 1.2
08/04:50am 19.7 15.8 14.5 72 3.0 NNW 28 46 15 25 993.0 993.0 1.0
08/04:30am 19.0 16.1 15.1 78 2.3 NNW 24 43 13 23 993.5 993.5 1.0
08/04:00am 19.1 16.4 14.6 75 2.6 N 22 39 12 21 993.8 993.8 1.0
08/03:30am 19.4 17.7 14.6 74 2.8 NNW 17 24 9 13 995.0 995.0 0.4
08/03:00am 22.2 19.2 12.5 54 5.5 NNW 20 41 11 22 994.8 994.8 0.0
08/02:55am 22.4 17.7 12.1 52 5.8 N 28 46 15 25 994.7 994.7 0.0
08/02:30am 22.4 17.0 12.1 52 5.8 N 32 46 17 25 994.0 994.0 0.0
08/02:02am 22.1 17.1 12.1 53 5.6 N 30 52 16 28 995.1 995.1 0.0
08/02:00am 22.1 17.2 12.4 54 5.5 N 30 43 16 23 995.3 995.3 0.0
08/01:47am 22.6 17.1 11.7 50 6.1 N 32 52 17 28 995.0 995.0 0.0
08/01:30am 21.2 18.1 12.3 57 5.0 N 20 35 11 19 996.4 996.4 0.0
08/01:00am 20.1 18.3 12.1 60 4.5 NNE 13 19 7 10 997.3 997.3 0.0
08/12:30am 20.4 18.7 12.4 60 4.5 NNE 13 19 7 10 998.6 998.6 0.0
08/12:00am 19.3 18.4 12.6 65 3.8 NE 9 13 5 7 999.1 999.1 0.0
 
Date/Time
EDT
Temp
°C
App
Temp
°C
Dew
Point
°C
Rel
Hum
%
Delta-T
°C
Wind Press
QNH
hPa
Press
MSL
hPa
Rain since
9am
mm
Dir  Spd
km/h
Gust
km/h
Spd
kts
Gust
kts
07/11:30pm 19.1 18.4 13.1 68 3.4 NNE 9 15 5 8 1000.0 1000.0 0.0
07/11:00pm 18.9 17.9 13.5 71 3.1 NNE 11 15 6 8 1001.2 1001.2 0.0
07/10:30pm 17.8 18.4 15.4 86 1.4 ENE 6 13 3 7 1001.8 1001.8 0.0
07/10:00pm 17.9 17.9 15.2 84 1.6 ENE 9 15 5 8 1002.5 1002.5 0.0
07/09:30pm 17.8 17.6 14.7 82 1.8 E 9 13 5 7 1003.2 1003.2 0.0
07/09:00pm 17.3 16.2 14.2 82 1.8 E 13 22 7 12 1003.4 1003.4 0.0
07/08:30pm 17.2 15.6 13.9 81 1.9 ESE 15 22 8 12 1004.0 1004.0 0.0
07/08:00pm 17.6 15.9 13.7 78 2.2 ESE 15 20 8 11 1004.7 1004.7 0.0
07/07:30pm 17.9 15.9 12.8 72 2.8 ESE 15 22 8 12 1004.9 1004.9 0.0
07/07:00pm 18.1 15.1 12.5 70 3.1 ESE 20 30 11 16 1005.6 1005.6 0.0
07/06:30pm 18.5 15.1 12.5 68 3.3 ESE 22 32 12 17 1006.2 1006.2 0.0
07/06:00pm 18.6 15.4 13.0 70 3.2 ESE 22 33 12 18 1006.9 1006.9 0.0
07/05:30pm 19.4 16.1 12.7 65 3.8 SE 22 32 12 17 1007.5 1007.5 0.0
07/05:00pm 19.8 16.8 12.6 63 4.1 SE 20 26 11 14 1008.3 1008.3 0.0
07/04:30pm 20.6 17.5 12.3 59 4.7 SE 20 26 11 14 1008.7 1008.7 0.0
07/04:00pm 20.3 17.7 12.0 59 4.6 SSE 17 24 9 13 1009.4 1009.4 0.0
07/03:30pm 20.9 18.7 13.4 62 4.3 SSE 17 20 9 11 1010.0 1010.0 0.0
07/03:00pm 19.9 17.8 12.4 62 4.2 SSE 15 20 8 11 1010.5 1010.5 0.0
07/02:30pm 20.4 18.4 12.6 61 4.4 S 15 20 8 11 1011.0 1011.0 0.0
07/02:00pm 21.1 18.8 11.7 55 5.2 SSE 15 20 8 11 1011.7 1011.7 0.0
07/01:30pm 22.0 19.3 10.2 47 6.4 ESE 15 20 8 11 1012.2 1012.2 0.0
07/01:00pm 22.0 19.4 9.2 44 6.8 ESE 13 20 7 11 1012.7 1012.7 0.0
07/12:30pm 21.8 20.1 9.7 46 6.5 E 9 17 5 9 1013.2 1013.2 0.0
07/12:00pm 21.1 18.8 7.3 41 7.1 ENE 9 17 5 9 1013.7 1013.7 0.0

Other Formats:

Comma delimited format used in spreadsheet applications
http://www.bom.gov.au/fwo/IDV60801/IDV60801.94830.axf

JavaScript Object Notation format (JSON) in row-major order
http://www.bom.gov.au/fwo/IDV60801/IDV60801.94830.json